Time;durP1;ratioP1;P1;durP2;ratioP2;P2;SDS_P1;SDS_P2;PMS_P1;PMS_P2;Temp;Humidity;BMP_temperature;BMP_pressure;BME280_temperature;BME280_humidity;BME280_pressure;Samples;Min_cycle;Max_cycle;Signal;HPM_P1;HPM_P2
2021/09/01 00:00:46;;;;;;;9.50;7.70;;;15.80;77.50;;;;;;5005315;28;20460;-46
2021/09/01 00:03:13;;;;;;;8.23;6.87;;;15.70;77.70;;;;;;5020898;28;20451;-45
2021/09/01 00:05:40;;;;;;;7.73;6.90;;;15.70;77.80;;;;;;5023779;28;20467;-46
2021/09/01 00:08:07;;;;;;;8.50;6.77;;;15.70;77.90;;;;;;5023404;28;20509;-46
2021/09/01 00:10:35;;;;;;;9.73;7.23;;;15.60;77.90;;;;;;5024076;28;20448;-45
2021/09/01 00:13:02;;;;;;;10.73;7.47;;;15.70;78.00;;;;;;5024961;28;20456;-45
2021/09/01 00:15:29;;;;;;;11.53;8.20;;;15.70;77.90;;;;;;5006703;28;20456;-45
2021/09/01 00:17:56;;;;;;;7.97;6.43;;;15.60;77.90;;;;;;5023151;28;20531;-45
2021/09/01 00:20:25;;;;;;;7.70;6.40;;;15.60;77.90;;;;;;5024620;28;20478;-46
2021/09/01 00:22:53;;;;;;;8.40;7.40;;;15.60;77.90;;;;;;5025490;28;20818;-46
2021/09/01 00:25:21;;;;;;;9.20;7.07;;;15.60;78.00;;;;;;5021950;28;20455;-46
2021/09/01 00:27:48;;;;;;;7.73;6.80;;;15.50;78.20;;;;;;5023666;28;20483;-46
2021/09/01 00:30:15;;;;;;;10.00;7.50;;;15.50;78.30;;;;;;5021190;28;20829;-45
2021/09/01 00:32:41;;;;;;;8.63;6.47;;;15.40;78.30;;;;;;5024971;28;20466;-45
2021/09/01 00:35:09;;;;;;;10.30;7.33;;;15.40;78.30;;;;;;5020493;28;20471;-45
2021/09/01 00:37:35;;;;;;;8.53;7.37;;;15.40;78.30;;;;;;5028407;28;20463;-45
2021/09/01 00:40:03;;;;;;;9.70;7.43;;;15.40;78.30;;;;;;5022899;28;20822;-46
2021/09/01 00:42:31;;;;;;;11.20;8.27;;;15.40;78.30;;;;;;5022894;28;20499;-45
2021/09/01 00:44:58;;;;;;;8.13;7.33;;;15.30;78.10;;;;;;5010667;28;20463;-45
2021/09/01 00:47:25;;;;;;;9.90;6.87;;;15.30;78.20;;;;;;5006475;28;20527;-45
2021/09/01 00:49:54;;;;;;;7.67;6.80;;;15.30;78.30;;;;;;5008874;28;20478;-45
2021/09/01 00:52:23;;;;;;;9.80;7.00;;;15.20;78.40;;;;;;5022149;28;20454;-45
2021/09/01 00:54:51;;;;;;;9.70;7.67;;;15.20;78.50;;;;;;5013326;28;20455;-45
2021/09/01 00:57:19;;;;;;;8.73;6.90;;;15.20;78.70;;;;;;5023560;28;20467;-45
2021/09/01 00:59:46;;;;;;;7.63;6.80;;;15.10;78.70;;;;;;5020496;28;20456;-45
2021/09/01 01:02:13;;;;;;;10.70;7.47;;;15.10;78.80;;;;;;5028325;28;20967;-45
2021/09/01 01:04:41;;;;;;;8.97;6.90;;;15.10;78.80;;;;;;5025836;28;20528;-45
2021/09/01 01:07:11;;;;;;;9.80;6.43;;;15.10;78.90;;;;;;5007013;28;20498;-46
2021/09/01 01:09:39;;;;;;;11.43;8.53;;;15.10;79.10;;;;;;5012551;28;20989;-45
2021/09/01 01:12:09;;;;;;;8.67;7.33;;;15.10;79.30;;;;;;5029780;28;20517;-46
2021/09/01 01:14:38;;;;;;;7.97;6.70;;;15.00;79.40;;;;;;5018857;28;20590;-45
2021/09/01 01:17:07;;;;;;;8.03;7.00;;;15.10;79.40;;;;;;5008370;28;20459;-45
2021/09/01 01:19:47;;;;;;;10.17;7.43;;;15.00;79.50;;;;;;5009522;28;20471;-45
2021/09/01 01:22:16;;;;;;;7.97;7.10;;;15.00;79.50;;;;;;5008862;28;20551;-45
2021/09/01 01:25:00;;;;;;;9.20;7.20;;;15.00;79.60;;;;;;5011042;28;20463;-45
2021/09/01 01:27:34;;;;;;;8.20;7.33;;;15.00;79.90;;;;;;5027256;28;20468;-46
2021/09/01 01:30:08;;;;;;;9.03;7.80;;;15.00;80.00;;;;;;5027345;28;20532;-45
2021/09/01 01:32:35;;;;;;;11.90;8.10;;;14.90;80.00;;;;;;5021418;28;20474;-45
2021/09/01 01:35:03;;;;;;;8.73;7.33;;;14.90;80.00;;;;;;5025521;28;20460;-45
2021/09/01 01:37:30;;;;;;;10.60;7.70;;;14.90;80.00;;;;;;5023865;28;20474;-45
2021/09/01 01:39:57;;;;;;;11.87;8.20;;;14.90;80.10;;;;;;5029747;28;20463;-45
2021/09/01 01:42:24;;;;;;;9.03;8.07;;;14.90;80.20;;;;;;5026346;28;20456;-45
2021/09/01 01:44:50;;;;;;;10.63;7.20;;;14.80;80.20;;;;;;5024872;28;20463;-45
2021/09/01 01:47:19;;;;;;;10.13;7.53;;;14.80;80.30;;;;;;5022491;28;20507;-45
2021/09/01 01:49:46;;;;;;;11.07;8.10;;;14.80;80.30;;;;;;5020070;28;20452;-45
2021/09/01 01:52:13;;;;;;;10.03;7.60;;;14.80;80.30;;;;;;5026717;28;20474;-45
2021/09/01 01:54:40;;;;;;;9.23;7.80;;;14.80;80.30;;;;;;5024621;28;20464;-45
2021/09/01 01:57:06;;;;;;;8.20;7.37;;;14.80;80.40;;;;;;5008981;28;21963;-46
2021/09/01 01:59:33;;;;;;;9.93;8.13;;;14.80;80.40;;;;;;5029427;28;20953;-45
2021/09/01 02:02:00;;;;;;;9.03;7.47;;;14.80;80.30;;;;;;5017543;28;20459;-45
2021/09/01 02:04:27;;;;;;;9.47;7.50;;;14.70;80.30;;;;;;5009553;28;20945;-45
2021/09/01 02:06:53;;;;;;;7.40;6.50;;;14.70;80.40;;;;;;5023320;28;20658;-45
2021/09/01 02:09:20;;;;;;;8.60;7.57;;;14.70;80.40;;;;;;5028933;28;20998;-45
2021/09/01 02:11:47;;;;;;;8.93;6.90;;;14.70;80.50;;;;;;5022844;28;20908;-43
2021/09/01 02:14:13;;;;;;;11.00;8.53;;;14.70;80.40;;;;;;5023129;28;20482;-43
2021/09/01 02:16:40;;;;;;;9.17;6.80;;;14.60;80.30;;;;;;5013599;28;20460;-43
2021/09/01 02:19:09;;;;;;;9.27;6.93;;;14.60;80.40;;;;;;5024365;28;20463;-43
2021/09/01 02:21:37;;;;;;;9.27;7.23;;;14.60;80.40;;;;;;5022047;28;20481;-43
2021/09/01 02:24:05;;;;;;;8.43;6.87;;;14.50;80.50;;;;;;4992416;28;20455;-43
2021/09/01 02:26:32;;;;;;;10.30;8.03;;;14.50;80.50;;;;;;5025344;28;20455;-43
2021/09/01 02:29:00;;;;;;;11.07;7.97;;;14.50;80.60;;;;;;5027399;28;20447;-43
2021/09/01 02:31:27;;;;;;;10.47;8.23;;;14.50;80.70;;;;;;5026733;28;20797;-43
2021/09/01 02:33:54;;;;;;;7.47;6.67;;;14.50;80.80;;;;;;5027069;28;20472;-43
2021/09/01 02:36:20;;;;;;;9.63;7.60;;;14.50;80.80;;;;;;5024332;28;20459;-43
2021/09/01 02:38:47;;;;;;;10.93;8.30;;;14.40;80.80;;;;;;5025939;28;20455;-45
2021/09/01 02:41:14;;;;;;;12.03;7.57;;;14.40;80.90;;;;;;5024245;28;20463;-43
2021/09/01 02:43:41;;;;;;;9.30;7.47;;;14.40;80.90;;;;;;5025936;28;20454;-43
2021/09/01 02:46:07;;;;;;;8.17;7.37;;;14.40;80.90;;;;;;5010368;28;20498;-43
2021/09/01 02:48:34;;;;;;;8.97;7.20;;;14.40;80.90;;;;;;5027117;28;20483;-43
2021/09/01 02:51:01;;;;;;;11.00;9.17;;;14.40;81.00;;;;;;5024979;28;20469;-43
2021/09/01 02:53:28;;;;;;;9.67;8.53;;;14.30;81.00;;;;;;5026494;28;20847;-43
2021/09/01 02:55:55;;;;;;;9.53;7.93;;;14.30;81.10;;;;;;5025034;28;20456;-43
2021/09/01 02:58:21;;;;;;;9.30;7.30;;;14.30;81.10;;;;;;5026574;28;20467;-43
2021/09/01 03:00:48;;;;;;;10.20;7.93;;;14.30;81.10;;;;;;5023585;28;20498;-43
2021/09/01 03:03:15;;;;;;;10.23;8.40;;;14.30;81.20;;;;;;5022252;28;20451;-43
2021/09/01 03:05:42;;;;;;;11.13;8.97;;;14.20;81.20;;;;;;5025750;28;20459;-43
2021/09/01 03:08:09;;;;;;;10.80;8.13;;;14.30;81.20;;;;;;5022744;28;20486;-43
2021/09/01 03:10:36;;;;;;;8.70;7.80;;;14.20;81.20;;;;;;5011334;28;20820;-43
2021/09/01 03:13:03;;;;;;;10.57;8.03;;;14.20;81.20;;;;;;5010075;28;20479;-43
2021/09/01 03:15:30;;;;;;;9.73;8.47;;;14.20;81.30;;;;;;5021568;28;20463;-43
2021/09/01 03:17:56;;;;;;;11.17;9.20;;;14.20;81.30;;;;;;5009870;28;20468;-43
2021/09/01 03:20:23;;;;;;;9.67;7.80;;;14.20;81.40;;;;;;5022974;28;20481;-43
2021/09/01 03:22:50;;;;;;;10.10;8.10;;;14.10;81.50;;;;;;5010660;28;20466;-43
2021/09/01 03:25:17;;;;;;;11.40;8.90;;;14.20;81.60;;;;;;5023564;28;20460;-43
2021/09/01 03:27:44;;;;;;;11.23;8.20;;;14.10;81.60;;;;;;5022642;28;20586;-43
2021/09/01 03:30:11;;;;;;;9.57;7.70;;;14.20;81.50;;;;;;5021513;28;20468;-43
2021/09/01 03:32:38;;;;;;;8.80;7.80;;;14.20;81.50;;;;;;5024054;28;20464;-43
2021/09/01 03:35:05;;;;;;;14.30;8.90;;;14.20;81.50;;;;;;5025951;28;20463;-43
2021/09/01 03:37:33;;;;;;;9.20;8.20;;;14.10;81.70;;;;;;4992448;28;20467;-43
2021/09/01 03:40:00;;;;;;;8.10;7.30;;;14.10;81.70;;;;;;5026071;28;20792;-43
2021/09/01 03:42:27;;;;;;;10.30;8.50;;;14.10;81.80;;;;;;5007084;28;20487;-43
2021/09/01 03:44:54;;;;;;;11.80;7.80;;;14.10;81.90;;;;;;5019510;28;20574;-43
2021/09/01 03:47:21;;;;;;;11.07;8.50;;;14.20;82.00;;;;;;5024889;28;20483;-43
2021/09/01 03:49:48;;;;;;;10.43;7.70;;;14.20;82.00;;;;;;5022418;28;20475;-43
2021/09/01 03:52:15;;;;;;;10.10;8.67;;;14.20;82.00;;;;;;5007788;28;20546;-43
2021/09/01 03:54:41;;;;;;;13.63;8.93;;;14.20;82.00;;;;;;5007593;28;20477;-43
2021/09/01 03:57:08;;;;;;;10.60;8.63;;;14.20;82.10;;;;;;5021735;28;20457;-43
2021/09/01 03:59:35;;;;;;;8.20;7.10;;;14.20;82.10;;;;;;5025015;28;20816;-45
2021/09/01 04:02:04;;;;;;;9.17;8.03;;;14.20;82.10;;;;;;5007949;28;20462;-43
2021/09/01 04:04:31;;;;;;;9.40;7.80;;;14.20;82.00;;;;;;5007870;28;20464;-43
2021/09/01 04:06:58;;;;;;;11.67;8.17;;;14.20;82.00;;;;;;5007121;28;20964;-43
2021/09/01 04:09:24;;;;;;;9.23;8.20;;;14.20;82.10;;;;;;5010628;28;20464;-43
2021/09/01 04:11:51;;;;;;;8.70;7.50;;;14.10;82.20;;;;;;5009451;28;20460;-43
2021/09/01 04:14:18;;;;;;;10.70;8.23;;;14.10;82.20;;;;;;5022373;28;20982;-43
2021/09/01 04:16:47;;;;;;;10.50;9.37;;;14.20;82.30;;;;;;5021558;28;20459;-43
2021/09/01 04:19:14;;;;;;;9.50;8.33;;;14.20;82.20;;;;;;5005547;28;20455;-43
2021/09/01 04:21:41;;;;;;;10.97;8.40;;;14.20;82.30;;;;;;5017823;28;20495;-44
2021/09/01 04:24:07;;;;;;;11.23;8.80;;;14.20;82.40;;;;;;5022980;28;20455;-43
2021/09/01 04:26:34;;;;;;;9.07;7.87;;;14.10;82.50;;;;;;5009125;28;20941;-43
2021/09/01 04:29:01;;;;;;;10.97;8.27;;;14.10;82.60;;;;;;5011649;28;20495;-43
2021/09/01 04:31:28;;;;;;;9.77;7.90;;;14.10;82.70;;;;;;5028171;28;20495;-43
2021/09/01 04:33:55;;;;;;;10.80;8.40;;;14.20;83.00;;;;;;5028307;28;20467;-43
2021/09/01 04:36:21;;;;;;;10.37;8.80;;;14.20;82.90;;;;;;5024890;28;20459;-43
2021/09/01 04:38:48;;;;;;;13.47;8.53;;;14.20;83.00;;;;;;5027996;28;20461;-43
2021/09/01 04:41:15;;;;;;;10.30;8.67;;;14.20;83.10;;;;;;5028082;28;20463;-43
2021/09/01 04:43:42;;;;;;;10.47;8.93;;;14.20;83.10;;;;;;5008833;28;20471;-43
2021/09/01 04:46:08;;;;;;;13.73;8.93;;;14.20;83.20;;;;;;5012079;28;21007;-43
2021/09/01 04:48:38;;;;;;;13.97;10.50;;;14.20;83.30;;;;;;5024910;28;20815;-43
2021/09/01 04:51:04;;;;;;;12.67;9.67;;;14.20;83.30;;;;;;5023305;28;20471;-43
2021/09/01 04:53:31;;;;;;;11.43;9.63;;;14.20;83.20;;;;;;5025207;28;20464;-43
2021/09/01 04:55:58;;;;;;;9.60;8.57;;;14.20;83.20;;;;;;5013263;28;20452;-43
2021/09/01 04:58:24;;;;;;;11.87;8.90;;;14.20;83.20;;;;;;5026728;28;20458;-43
2021/09/01 05:00:53;;;;;;;11.87;8.90;;;14.30;83.20;;;;;;5026627;28;20467;-43
2021/09/01 05:03:20;;;;;;;10.67;8.20;;;14.30;83.10;;;;;;5011229;28;20459;-43
2021/09/01 05:05:47;;;;;;;10.00;8.87;;;14.30;83.20;;;;;;5012722;28;20485;-43
2021/09/01 05:08:14;;;;;;;13.23;8.70;;;14.30;83.20;;;;;;5023956;28;20483;-43
2021/09/01 05:10:40;;;;;;;11.70;9.63;;;14.30;83.30;;;;;;5027384;28;20462;-43
2021/09/01 05:13:08;;;;;;;12.67;9.90;;;14.30;83.30;;;;;;5014711;28;20448;-43
2021/09/01 05:15:35;;;;;;;10.37;9.30;;;14.30;83.40;;;;;;5009525;28;20527;-43
2021/09/01 05:18:02;;;;;;;11.97;9.10;;;14.30;83.40;;;;;;5025907;28;20846;-43
2021/09/01 05:20:28;;;;;;;11.03;9.03;;;14.30;83.50;;;;;;5025914;28;20463;-44
2021/09/01 05:23:01;;;;;;;12.67;9.03;;;14.30;83.50;;;;;;5029321;28;20464;-43
2021/09/01 05:25:30;;;;;;;10.37;8.20;;;14.30;83.60;;;;;;5007676;28;20473;-43
2021/09/01 05:27:59;;;;;;;10.93;8.50;;;14.40;83.60;;;;;;5024694;28;20483;-43
2021/09/01 05:30:28;;;;;;;9.60;7.93;;;14.40;83.60;;;;;;5025572;28;20890;-43
2021/09/01 05:33:00;;;;;;;12.87;9.90;;;14.40;83.60;;;;;;5011046;28;20456;-44
2021/09/01 05:35:31;;;;;;;13.60;9.30;;;14.50;83.60;;;;;;5023154;28;20867;-43
2021/09/01 05:38:00;;;;;;;11.10;8.00;;;14.50;83.50;;;;;;5008302;28;20504;-43
2021/09/01 05:40:29;;;;;;;10.53;7.50;;;14.50;83.60;;;;;;5020876;28;20455;-43
2021/09/01 05:43:00;;;;;;;10.63;9.37;;;14.50;83.60;;;;;;5029523;28;20465;-43
2021/09/01 05:45:28;;;;;;;9.10;8.00;;;14.50;83.60;;;;;;5023501;28;20836;-42
2021/09/01 05:47:57;;;;;;;12.70;8.80;;;14.60;83.60;;;;;;5027268;28;20494;-42
2021/09/01 05:50:25;;;;;;;11.30;8.70;;;14.60;83.70;;;;;;5021886;28;20464;-42
2021/09/01 05:52:52;;;;;;;10.60;8.00;;;14.60;83.80;;;;;;5026859;28;20955;-42
2021/09/01 05:55:19;;;;;;;9.73;8.37;;;14.60;83.90;;;;;;5019911;28;20483;-42
2021/09/01 05:57:51;;;;;;;11.07;8.23;;;14.70;83.90;;;;;;5023466;28;20463;-42
2021/09/01 06:00:17;;;;;;;11.50;8.57;;;14.80;83.90;;;;;;5024050;28;20464;-42
2021/09/01 06:02:49;;;;;;;12.33;8.53;;;14.90;83.90;;;;;;5011689;28;20816;-42
2021/09/01 06:05:18;;;;;;;12.27;8.63;;;14.90;83.90;;;;;;5014021;28;20486;-42
2021/09/01 06:07:56;;;;;;;11.10;9.80;;;15.00;83.90;;;;;;5008785;28;20819;-42
2021/09/01 06:10:31;;;;;;;13.63;10.20;;;15.10;84.00;;;;;;5012363;28;20445;-42
2021/09/01 06:13:09;;;;;;;13.13;10.70;;;15.20;84.10;;;;;;5008227;28;20589;-42
2021/09/01 06:15:40;;;;;;;11.77;10.03;;;15.40;84.30;;;;;;5023703;28;20460;-42
2021/09/01 06:18:08;;;;;;;13.40;10.20;;;15.50;84.30;;;;;;5024742;28;20447;-42
2021/09/01 06:20:37;;;;;;;12.47;9.70;;;15.60;84.20;;;;;;5025071;28;20991;-42
2021/09/01 06:23:05;;;;;;;13.40;11.33;;;15.70;84.10;;;;;;5011208;28;20827;-42
2021/09/01 06:25:32;;;;;;;12.83;9.67;;;15.90;83.40;;;;;;5012308;28;20464;-42
2021/09/01 06:27:59;;;;;;;12.93;9.70;;;16.00;82.90;;;;;;5022698;28;20515;-42
2021/09/01 06:30:26;;;;;;;12.70;9.50;;;16.20;82.70;;;;;;4970022;28;1091886;-42
2021/09/01 06:32:53;;;;;;;12.00;10.70;;;16.20;82.30;;;;;;5008620;28;20205;-42
2021/09/01 06:35:20;;;;;;;10.87;9.33;;;16.30;81.80;;;;;;5009268;28;20464;-42
2021/09/01 06:37:51;;;;;;;13.07;10.00;;;16.40;81.80;;;;;;5025455;28;20544;-42
2021/09/01 06:40:19;;;;;;;16.50;11.30;;;16.40;81.50;;;;;;5027350;28;20556;-42
2021/09/01 06:42:46;;;;;;;11.67;9.93;;;16.50;80.50;;;;;;5008199;28;20539;-42
2021/09/01 06:45:14;;;;;;;14.80;11.63;;;16.50;80.40;;;;;;5008337;28;20450;-42
2021/09/01 06:47:46;;;;;;;15.30;11.90;;;16.50;80.60;;;;;;5011099;28;20459;-42
2021/09/01 06:50:15;;;;;;;12.50;11.10;;;16.60;80.70;;;;;;5022617;28;20996;-42
2021/09/01 06:52:44;;;;;;;13.60;10.20;;;16.60;80.70;;;;;;5009269;28;20459;-42
2021/09/01 06:55:11;;;;;;;14.57;10.93;;;16.70;80.20;;;;;;5004979;28;20857;-42
2021/09/01 06:57:38;;;;;;;14.10;10.27;;;16.70;80.30;;;;;;5019786;28;20461;-42
2021/09/01 07:00:07;;;;;;;12.77;10.70;;;16.80;80.10;;;;;;5025321;28;20465;-41
2021/09/01 07:02:33;;;;;;;16.10;10.50;;;16.80;80.10;;;;;;5024485;28;20534;-41
2021/09/01 07:05:01;;;;;;;16.70;10.60;;;16.90;79.80;;;;;;5024055;28;20855;-41
2021/09/01 07:07:28;;;;;;;14.30;9.47;;;17.00;80.00;;;;;;5004686;28;20467;-41
2021/09/01 07:09:55;;;;;;;10.67;9.07;;;17.10;79.30;;;;;;5012296;28;20513;-41
2021/09/01 07:12:23;;;;;;;13.20;9.57;;;17.10;79.10;;;;;;5012817;28;20957;-42
2021/09/01 07:14:50;;;;;;;15.83;9.23;;;17.20;79.10;;;;;;5023376;28;20462;-42
2021/09/01 07:17:16;;;;;;;13.37;10.23;;;17.20;78.90;;;;;;5020862;28;20463;-42
2021/09/01 07:19:43;;;;;;;16.33;9.30;;;17.40;78.30;;;;;;5005901;28;20464;-42
2021/09/01 07:22:11;;;;;;;12.57;8.40;;;17.40;78.10;;;;;;5022788;28;20480;-42
2021/09/01 07:24:38;;;;;;;13.60;9.53;;;17.60;77.70;;;;;;5020760;28;20467;-42
2021/09/01 07:27:05;;;;;;;11.60;8.57;;;17.70;77.50;;;;;;5021497;28;20991;-42
2021/09/01 07:29:32;;;;;;;11.40;8.30;;;17.80;77.60;;;;;;5023057;28;20519;-42
2021/09/01 07:32:01;;;;;;;10.63;8.30;;;17.90;76.70;;;;;;5016024;28;21022;-42
2021/09/01 07:34:28;;;;;;;12.10;9.23;;;18.00;76.30;;;;;;5012334;28;20451;-42
2021/09/01 07:36:54;;;;;;;12.50;9.00;;;18.20;76.00;;;;;;5006240;28;20460;-42
2021/09/01 07:39:23;;;;;;;13.47;8.83;;;18.30;75.40;;;;;;5024443;28;20899;-42
2021/09/01 07:41:50;;;;;;;11.43;8.17;;;18.50;74.50;;;;;;5024155;28;20459;-42
2021/09/01 07:44:17;;;;;;;11.80;9.10;;;18.60;74.00;;;;;;5017801;28;20455;-42
2021/09/01 07:46:45;;;;;;;10.40;8.70;;;18.70;73.20;;;;;;5021446;28;20460;-42
2021/09/01 07:49:12;;;;;;;8.50;7.40;;;18.90;73.10;;;;;;5024370;28;20996;-42
2021/09/01 07:51:41;;;;;;;11.30;8.70;;;19.00;73.00;;;;;;5024208;28;20463;-42
2021/09/01 07:54:08;;;;;;;16.67;8.57;;;19.10;72.40;;;;;;5004976;28;20460;-43
2021/09/01 07:56:34;;;;;;;10.80;8.53;;;19.30;72.00;;;;;;5020080;28;20447;-43
2021/09/01 07:59:01;;;;;;;13.37;8.23;;;19.30;72.00;;;;;;5007866;28;20492;-42
2021/09/01 08:01:28;;;;;;;11.90;8.07;;;19.40;71.60;;;;;;5002111;28;21020;-42
2021/09/01 08:03:55;;;;;;;11.03;9.27;;;19.60;71.00;;;;;;5022795;28;20535;-42
2021/09/01 08:06:26;;;;;;;10.27;7.70;;;19.70;70.80;;;;;;5006348;28;20968;-42
2021/09/01 08:08:53;;;;;;;10.57;8.27;;;19.90;70.10;;;;;;5017373;28;20494;-42
2021/09/01 08:11:20;;;;;;;9.07;8.10;;;20.10;69.60;;;;;;5006435;28;20466;-42
2021/09/01 08:13:47;;;;;;;7.87;7.07;;;20.20;69.50;;;;;;5003306;28;20460;-42
2021/09/01 08:16:13;;;;;;;11.90;8.03;;;20.40;69.10;;;;;;5021075;28;20455;-42
2021/09/01 08:18:40;;;;;;;10.00;7.70;;;20.60;68.40;;;;;;5022885;28;20463;-42
2021/09/01 08:21:07;;;;;;;10.43;7.00;;;20.70;68.20;;;;;;5008359;28;20994;-43
2021/09/01 08:23:34;;;;;;;9.17;7.17;;;20.90;67.50;;;;;;5022915;28;20455;-43
2021/09/01 08:26:01;;;;;;;10.90;6.50;;;21.10;66.50;;;;;;5018784;28;20470;-43
2021/09/01 08:28:28;;;;;;;10.40;6.50;;;21.30;65.90;;;;;;5021717;28;20490;-43
2021/09/01 08:30:54;;;;;;;9.37;6.57;;;21.50;64.30;;;;;;5002311;28;20464;-43
2021/09/01 08:33:21;;;;;;;9.00;6.40;;;21.70;64.10;;;;;;5009245;28;20458;-43
2021/09/01 08:35:48;;;;;;;12.70;7.60;;;21.90;64.00;;;;;;5004090;28;20988;-43
2021/09/01 08:38:15;;;;;;;10.03;6.93;;;22.10;63.20;;;;;;4991062;28;20960;-43
2021/09/01 08:40:42;;;;;;;12.53;7.00;;;22.30;62.30;;;;;;5024846;28;20459;-43
2021/09/01 08:43:09;;;;;;;11.97;7.70;;;22.60;61.90;;;;;;5021100;28;20546;-43
2021/09/01 08:45:36;;;;;;;8.13;6.57;;;22.60;61.80;;;;;;5019430;28;20511;-43
2021/09/01 08:48:03;;;;;;;8.50;7.03;;;22.80;61.50;;;;;;5004979;28;20486;-44
2021/09/01 08:50:31;;;;;;;9.80;6.97;;;22.70;61.50;;;;;;5009032;28;20577;-44
2021/09/01 08:52:57;;;;;;;10.30;6.97;;;22.70;61.80;;;;;;5010871;28;20455;-44
2021/09/01 08:55:28;;;;;;;10.17;7.70;;;22.80;61.40;;;;;;5020570;28;20462;-44
2021/09/01 08:57:55;;;;;;;9.10;7.73;;;22.90;61.20;;;;;;5022695;28;20539;-44
2021/09/01 09:00:24;;;;;;;9.80;6.63;;;23.20;60.10;;;;;;5019142;28;20948;-44
2021/09/01 09:02:56;;;;;;;10.63;6.70;;;23.50;60.30;;;;;;5021765;28;20493;-44
2021/09/01 09:05:37;;;;;;;10.23;6.47;;;23.80;58.30;;;;;;5021547;28;20471;-44
2021/09/01 09:08:08;;;;;;;8.53;6.13;;;23.80;57.80;;;;;;5026397;28;20456;-44
2021/09/01 09:10:40;;;;;;;9.20;6.60;;;23.60;58.10;;;;;;5020970;28;20487;-44
2021/09/01 09:13:30;;;;;;;10.23;7.70;;;23.40;59.20;;;;;;5022520;28;20447;-44
2021/09/01 09:16:03;;;;;;;11.20;7.23;;;23.40;59.00;;;;;;5025098;28;20446;-44
2021/09/01 09:18:31;;;;;;;10.20;6.20;;;23.10;59.40;;;;;;5003684;28;20455;-44
2021/09/01 09:21:10;;;;;;;9.53;6.77;;;22.90;59.90;;;;;;5024791;28;20937;-44
2021/09/01 09:23:37;;;;;;;8.80;6.30;;;22.60;60.50;;;;;;5025367;28;20461;-44
2021/09/01 09:26:43;;;;;;;9.70;6.30;;;22.30;61.00;;;;;;5020330;28;20451;-44
2021/09/01 09:29:13;;;;;;;9.20;6.13;;;22.10;62.00;;;;;;4961296;28;20959;-44
2021/09/01 09:31:42;;;;;;;7.60;6.00;;;22.20;61.90;;;;;;4951816;28;20461;-44
2021/09/01 09:34:19;;;;;;;8.77;5.43;;;22.40;60.70;;;;;;4998183;28;20820;-44
2021/09/01 09:37:05;;;;;;;9.20;5.80;;;22.60;61.00;;;;;;5024496;28;20464;-44
2021/09/01 09:39:46;;;;;;;9.23;5.73;;;23.10;59.60;;;;;;5027357;28;20456;-44
2021/09/01 09:42:31;;;;;;;9.03;5.80;;;23.40;58.80;;;;;;5024207;28;20451;-44
2021/09/01 09:44:59;;;;;;;10.53;5.47;;;23.70;58.30;;;;;;5002134;28;20444;-44
2021/09/01 09:47:46;;;;;;;9.87;6.60;;;24.00;57.50;;;;;;5024642;28;20469;-44
2021/09/01 09:50:13;;;;;;;13.07;5.70;;;24.00;57.70;;;;;;5025083;28;20505;-44
2021/09/01 09:52:40;;;;;;;9.20;5.87;;;23.90;56.80;;;;;;5023167;28;20819;-44
2021/09/01 09:55:12;;;;;;;12.73;6.30;;;23.70;56.90;;;;;;5026723;28;20452;-44
2021/09/01 09:57:52;;;;;;;9.93;6.50;;;23.30;57.90;;;;;;5027383;28;20481;-44
2021/09/01 10:00:21;;;;;;;9.57;6.07;;;23.00;58.90;;;;;;5025496;28;20470;-44
2021/09/01 10:02:47;;;;;;;8.63;5.90;;;22.80;59.70;;;;;;5024795;28;20504;-44
2021/09/01 10:05:17;;;;;;;9.10;6.10;;;22.50;60.40;;;;;;5023198;28;20459;-44
2021/09/01 10:07:44;;;;;;;12.93;5.97;;;22.30;60.00;;;;;;5010693;28;20473;-44
2021/09/01 10:10:11;;;;;;;7.77;6.03;;;22.30;60.60;;;;;;5011527;28;20497;-44
2021/09/01 10:12:41;;;;;;;10.20;6.43;;;22.70;60.60;;;;;;5023296;28;20470;-44
2021/09/01 10:15:11;;;;;;;9.93;5.83;;;23.20;59.20;;;;;;5010216;28;20464;-44
2021/09/01 10:17:41;;;;;;;8.87;5.83;;;23.80;57.60;;;;;;5018992;28;20457;-44
2021/09/01 10:20:10;;;;;;;8.27;6.53;;;24.20;56.30;;;;;;5022314;28;20845;-45
2021/09/01 10:22:37;;;;;;;13.70;6.67;;;24.20;56.00;;;;;;5028218;28;21128;-44
2021/09/01 10:25:04;;;;;;;11.00;6.17;;;24.30;55.90;;;;;;5002600;28;20506;-44
2021/09/01 10:27:32;;;;;;;7.73;6.17;;;24.20;55.90;;;;;;5024750;28;20493;-44
2021/09/01 10:30:08;;;;;;;9.60;6.37;;;23.90;55.90;;;;;;5022297;28;20483;-44
2021/09/01 10:32:50;;;;;;;9.93;6.50;;;23.60;57.10;;;;;;5011009;28;21173;-44
2021/09/01 10:35:19;;;;;;;8.93;5.40;;;23.30;57.70;;;;;;5007662;28;20543;-44
2021/09/01 10:37:52;;;;;;;6.83;4.93;;;23.10;57.80;;;;;;5020404;28;20467;-44
2021/09/01 10:40:23;;;;;;;9.27;5.97;;;23.40;57.40;;;;;;5021847;28;20455;-44
2021/09/01 10:42:51;;;;;;;9.97;5.97;;;24.00;56.50;;;;;;5006577;28;20485;-44
2021/09/01 10:45:23;;;;;;;7.70;5.37;;;24.60;55.10;;;;;;5024833;28;20467;-44
2021/09/01 10:47:50;;;;;;;6.83;5.67;;;25.10;53.10;;;;;;5025577;28;20474;-44
2021/09/01 10:50:18;;;;;;;8.27;4.90;;;25.60;52.20;;;;;;5023342;28;20537;-44
2021/09/01 10:53:06;;;;;;;7.40;5.30;;;26.00;51.50;;;;;;5008957;28;20458;-44
2021/09/01 10:55:50;;;;;;;5.93;4.70;;;26.20;50.90;;;;;;5004350;28;20471;-44
2021/09/01 10:58:17;;;;;;;9.80;6.50;;;26.20;50.70;;;;;;5009182;28;20844;-44
2021/09/01 11:00:50;;;;;;;8.23;5.63;;;26.10;51.10;;;;;;5022041;28;20463;-44
2021/09/01 11:03:33;;;;;;;6.60;5.80;;;25.90;51.10;;;;;;5020612;28;20467;-44
2021/09/01 11:06:10;;;;;;;12.53;5.63;;;25.60;51.10;;;;;;5011780;28;20463;-44
2021/09/01 11:08:37;;;;;;;6.93;5.50;;;25.30;51.80;;;;;;5024326;28;20593;-44
2021/09/01 11:11:06;;;;;;;6.80;5.30;;;24.90;52.80;;;;;;5024091;28;20996;-44
2021/09/01 11:13:42;;;;;;;7.33;5.50;;;24.50;53.50;;;;;;5003738;28;20537;-44
2021/09/01 11:16:21;;;;;;;9.93;5.70;;;24.20;54.20;;;;;;5003296;28;20959;-44
2021/09/01 11:19:19;;;;;;;7.90;6.40;;;23.90;54.40;;;;;;5003627;28;20455;-44
2021/09/01 11:21:47;;;;;;;9.40;6.23;;;23.50;55.30;;;;;;5013019;28;21038;-44
2021/09/01 11:24:17;;;;;;;7.40;6.60;;;23.40;56.20;;;;;;5024118;28;20465;-44
2021/09/01 11:26:53;;;;;;;8.40;5.17;;;23.20;56.80;;;;;;5024024;28;20471;-44
2021/09/01 11:29:29;;;;;;;9.33;6.73;;;23.10;56.80;;;;;;5025738;28;20815;-44
2021/09/01 11:31:59;;;;;;;13.43;6.03;;;22.90;57.00;;;;;;5024028;28;20468;-44
2021/09/01 11:34:25;;;;;;;8.93;5.70;;;22.90;57.20;;;;;;5010101;28;20450;-44
2021/09/01 11:36:52;;;;;;;11.13;6.30;;;22.70;57.40;;;;;;5020602;28;20462;-44
2021/09/01 11:39:19;;;;;;;10.20;5.70;;;22.60;58.60;;;;;;5026020;28;21052;-44
2021/09/01 11:41:55;;;;;;;6.83;5.87;;;22.60;58.50;;;;;;5022012;28;20463;-44
2021/09/01 11:44:22;;;;;;;12.40;6.20;;;22.50;58.30;;;;;;5008362;28;20459;-44
2021/09/01 11:46:49;;;;;;;6.07;4.90;;;22.50;58.20;;;;;;5009325;28;20460;-44
2021/09/01 11:49:16;;;;;;;7.40;5.40;;;22.50;57.90;;;;;;5019257;28;20976;-44
2021/09/01 11:51:45;;;;;;;6.23;5.30;;;22.50;57.90;;;;;;5010499;28;20463;-44
2021/09/01 11:54:13;;;;;;;9.30;4.83;;;22.50;57.10;;;;;;5020001;28;20869;-44
2021/09/01 11:56:49;;;;;;;9.77;5.77;;;22.50;57.50;;;;;;5024588;28;20539;-44
2021/09/01 11:59:16;;;;;;;9.70;6.20;;;22.50;57.30;;;;;;5024641;28;20479;-44
2021/09/01 12:01:58;;;;;;;6.43;5.50;;;22.50;56.80;;;;;;5016597;28;20459;-44
2021/09/01 12:04:26;;;;;;;8.73;5.40;;;22.60;57.70;;;;;;5024082;28;21062;-43
2021/09/01 12:07:29;;;;;;;6.53;5.43;;;22.70;57.40;;;;;;5023588;28;20471;-43
2021/09/01 12:09:59;;;;;;;7.23;5.43;;;22.70;57.30;;;;;;5023256;28;20502;-44
2021/09/01 12:12:57;;;;;;;8.80;5.50;;;22.60;57.40;;;;;;5023581;28;20470;-43
2021/09/01 12:15:23;;;;;;;7.10;5.87;;;22.60;57.60;;;;;;5024421;28;20510;-44
2021/09/01 12:18:01;;;;;;;7.03;5.03;;;22.50;57.70;;;;;;5006146;28;20541;-44
2021/09/01 12:20:33;;;;;;;7.67;6.17;;;22.40;57.90;;;;;;5006202;28;20489;-44
2021/09/01 12:23:03;;;;;;;7.07;5.13;;;22.40;58.00;;;;;;5021598;28;20474;-44
2021/09/01 12:25:29;;;;;;;8.27;4.97;;;22.40;58.80;;;;;;5011500;28;20459;-44
2021/09/01 12:28:14;;;;;;;7.77;5.87;;;22.40;57.80;;;;;;5021658;28;20459;-44
2021/09/01 12:30:46;;;;;;;6.50;5.17;;;22.30;57.20;;;;;;5036527;28;20482;-44
2021/09/01 12:33:18;;;;;;;6.77;5.70;;;22.30;57.80;;;;;;5026538;28;20969;-44
2021/09/01 12:35:56;;;;;;;5.27;4.23;;;22.30;58.60;;;;;;5009539;28;20469;-44
2021/09/01 12:38:23;;;;;;;6.47;4.57;;;22.30;58.20;;;;;;5024129;28;20460;-44
2021/09/01 12:40:50;;;;;;;8.47;5.77;;;22.30;59.50;;;;;;5009448;28;20455;-44
2021/09/01 12:43:19;;;;;;;11.67;5.80;;;22.40;58.70;;;;;;5026097;28;20467;-43
2021/09/01 12:45:46;;;;;;;7.90;4.77;;;22.40;58.70;;;;;;5024586;28;20455;-44
2021/09/01 12:48:18;;;;;;;7.97;5.03;;;22.30;58.00;;;;;;5023693;28;20518;-44
2021/09/01 12:50:51;;;;;;;6.27;4.90;;;22.30;58.40;;;;;;5029244;28;20489;-44